Terminal Aerodrome Forecast
Issued by NWS

Home | Current Version | Previous Version | Text Only | Print | Product List | Glossary On
Versions: 1 2 3 4 5 6 7 8 9 10 11 12 13 14 15 16 17 18 19 20 21 22 23
000
FTUS45 KRIW 221100
TAFCPR
TAF
KCPR 221126Z 2212/2312 VRB04KT P6SM VCFG OVC005
     FM221600 07006KT P6SM SCT040 BKN070
     FM222200 09012G20KT P6SM VCSH SCT030 BKN050
     FM230100 09010KT P6SM VCSH SCT020 BKN035
     FM230900 VRB06KT P6SM SCT020 BKN050=

USA.gov is the U.S. government's official web portal to all federal, state and local government web resources and services.